ěÝzenÝ letovÚho provozu ╚eskÚ republiky
Letiste: LKPR Aktualizace: 16.04.2024 08:31:05  UTC
 METAR LKPR 16.04. 08:30 ...
METAR LKPR 160830Z 25023KT 9999 SCT023 SCT033 07/M00 Q1003 TEMPO 24023G33KT=
 TAF LKPR 16.04. 08:00 ...
TAF LKPR 160800Z 1609/1715 23020KT 9999 BKN030      TEMPO 1609/1617 24020G30KT      TEMPO 1612/1620 5000 SHRA SCT012 BKN030TCU      BECMG 1620/1622 32010KT -RA SCT007 BKN015      TEMPO 1701/1708 BKN005      BECMG 1708/1710 NSW BKN030=
 WARNING LKPR 16.04. 08:18 ...
LKPR AD WRNG 1 VALID 160821/161220 SFC WIND 240/25KT FCST NC=